createdAt,value
2017-11-15T00:00:45.614Z,8.36
2017-11-15T00:01:45.636Z,8.4
2017-11-15T00:02:45.650Z,8.28
2017-11-15T00:03:45.694Z,8.37
2017-11-15T00:04:45.424Z,8.41
2017-11-15T00:05:45.719Z,8.34
2017-11-15T00:07:00.396Z,8.4
2017-11-15T00:07:45.753Z,8.43
2017-11-15T00:08:45.763Z,8.38
2017-11-15T00:09:45.520Z,8.45
2017-11-15T00:11:45.811Z,8.37
2017-11-15T00:12:45.824Z,8.4
2017-11-15T00:14:00.517Z,8.36
2017-11-15T00:14:45.863Z,8.36
2017-11-15T00:15:45.878Z,8.34
2017-11-15T00:17:00.578Z,8.36
2017-11-15T00:17:45.920Z,8.38
2017-11-15T00:18:45.939Z,8.29
2017-11-15T00:19:45.953Z,8.3
2017-11-15T00:20:45.990Z,8.37
2017-11-15T00:22:46.019Z,8.36
2017-11-15T00:23:46.033Z,8.47
2017-11-15T00:24:46.044Z,8.4
2017-11-15T00:25:46.084Z,8.36
2017-11-15T00:26:46.084Z,8.36
2017-11-15T00:28:46.122Z,8.33
2017-11-15T00:30:00.805Z,8.37
2017-11-15T00:31:00.811Z,8.38
2017-11-15T00:31:45.902Z,8.34
2017-11-15T00:32:46.204Z,8.41
2017-11-15T00:33:46.212Z,8.41
2017-11-15T00:35:00.895Z,8.47
2017-11-15T00:35:46.234Z,8.37
2017-11-15T00:37:46.281Z,8.36
2017-11-15T00:39:00.964Z,8.33
2017-11-15T00:39:46.315Z,8.44
2017-11-15T00:41:46.367Z,8.44
2017-11-15T00:42:46.363Z,8.43
2017-11-15T00:43:46.494Z,8.43
2017-11-15T00:45:01.069Z,8.4
2017-11-15T00:45:46.426Z,8.41
2017-11-15T00:46:46.180Z,8.4
2017-11-15T00:47:46.449Z,8.3
2017-11-15T00:48:46.488Z,8.37
2017-11-15T00:49:46.488Z,8.43
2017-11-15T00:50:46.497Z,8.44
2017-11-15T00:51:46.526Z,8.41
2017-11-15T00:52:46.546Z,8.34
2017-11-15T00:53:46.553Z,8.38
2017-11-15T00:55:46.695Z,8.43
2017-11-15T00:56:46.616Z,8.48
2017-11-15T00:57:46.621Z,8.52
2017-11-15T00:58:46.652Z,8.4
2017-11-15T00:59:46.677Z,8.36
2017-11-15T01:00:46.681Z,8.44
2017-11-15T01:01:46.701Z,8.43
2017-11-15T01:02:46.733Z,8.44
2017-11-15T01:03:46.732Z,8.45
2017-11-15T01:04:46.755Z,8.45
2017-11-15T01:05:46.768Z,8.41
2017-11-15T01:06:46.793Z,8.45
2017-11-15T01:07:46.810Z,8.43
2017-11-15T01:08:46.833Z,8.5
2017-11-15T01:09:46.856Z,8.36
2017-11-15T01:11:01.532Z,8.45
2017-11-15T01:11:46.867Z,8.37
2017-11-15T01:12:46.906Z,8.4
2017-11-15T01:15:01.342Z,8.4
2017-11-15T01:15:46.969Z,8.52
2017-11-15T01:17:01.639Z,8.41
2017-11-15T01:17:47.014Z,8.38
2017-11-15T01:18:47.008Z,8.55
2017-11-15T01:19:46.762Z,8.45
2017-11-15T01:20:46.787Z,8.45
2017-11-15T01:22:01.737Z,8.43
2017-11-15T01:22:47.082Z,8.44
2017-11-15T01:23:47.098Z,8.47
2017-11-15T01:24:47.116Z,8.41
2017-11-15T01:25:47.130Z,8.47
2017-11-15T01:26:47.148Z,8.41
2017-11-15T01:27:47.169Z,8.37
2017-11-15T01:28:47.183Z,8.45
2017-11-15T01:29:47.206Z,8.41
2017-11-15T01:30:47.246Z,8.37
2017-11-15T01:31:47.240Z,8.44
2017-11-15T01:33:01.933Z,8.41
2017-11-15T01:33:47.288Z,8.4
2017-11-15T01:34:47.281Z,8.36
2017-11-15T01:35:47.336Z,8.33
2017-11-15T01:36:47.340Z,8.33
2017-11-15T01:37:47.341Z,8.36
2017-11-15T01:38:47.374Z,8.3
2017-11-15T01:39:47.385Z,8.26
2017-11-15T01:40:47.406Z,8.25
2017-11-15T01:41:47.419Z,8.2
2017-11-15T01:42:47.430Z,8.26
2017-11-15T01:43:47.452Z,8.41
2017-11-15T01:44:47.480Z,8.33
2017-11-15T01:46:47.528Z,8.36
2017-11-15T01:47:47.544Z,8.36
2017-11-15T01:49:02.215Z,8.33
2017-11-15T01:50:02.239Z,8.34
2017-11-15T01:50:47.582Z,8.37
2017-11-15T01:51:47.597Z,8.36
2017-11-15T01:52:47.605Z,8.3
2017-11-15T01:53:47.634Z,8.4
2017-11-15T01:54:47.640Z,8.43
2017-11-15T01:55:47.679Z,8.34
2017-11-15T01:57:47.446Z,8.4
2017-11-15T01:58:47.713Z,8.43
2017-11-15T01:59:47.742Z,8.33
2017-11-15T02:00:47.751Z,8.3
2017-11-15T02:01:47.786Z,8.44
2017-11-15T02:02:47.807Z,8.38
2017-11-15T02:03:47.550Z,8.38
2017-11-15T02:05:02.495Z,8.37
2017-11-15T02:05:47.593Z,8.5
2017-11-15T02:06:47.862Z,8.4
2017-11-15T02:08:02.544Z,8.52
2017-11-15T02:08:47.903Z,8.5
2017-11-15T02:09:47.921Z,8.41
2017-11-15T02:10:47.940Z,8.4
2017-11-15T02:11:47.963Z,8.45
2017-11-15T02:12:47.720Z,8.41
2017-11-15T02:13:47.986Z,8.38
2017-11-15T02:14:48.027Z,8.43
2017-11-15T02:15:47.872Z,8.44
2017-11-15T02:16:48.046Z,8.38
2017-11-15T02:17:48.063Z,8.4
2017-11-15T02:19:02.491Z,8.37
2017-11-15T02:20:02.769Z,8.38
2017-11-15T02:20:48.136Z,8.44
2017-11-15T02:21:48.148Z,8.34
2017-11-15T02:22:48.155Z,8.33
2017-11-15T02:23:47.915Z,8.4
2017-11-15T02:24:48.190Z,8.28
2017-11-15T02:25:48.226Z,8.33
2017-11-15T02:26:48.247Z,8.37
2017-11-15T02:27:47.999Z,8.33
2017-11-15T02:28:48.274Z,8.33
2017-11-15T02:29:48.281Z,8.37
2017-11-15T02:30:48.307Z,8.33
2017-11-15T02:31:48.070Z,8.33
2017-11-15T02:32:48.347Z,8.28
2017-11-15T02:33:48.112Z,8.4
2017-11-15T02:34:48.375Z,8.37
2017-11-15T02:35:48.400Z,8.36
2017-11-15T02:36:48.450Z,8.4
2017-11-15T02:37:48.435Z,8.45
2017-11-15T02:38:48.474Z,8.3
2017-11-15T02:39:48.535Z,8.36
2017-11-15T02:41:48.493Z,8.41
2017-11-15T02:42:48.528Z,8.41
2017-11-15T02:43:48.548Z,8.37
2017-11-15T02:44:48.305Z,8.44
2017-11-15T02:45:48.330Z,8.4
2017-11-15T02:46:48.592Z,8.43
2017-11-15T02:47:48.383Z,8.41
2017-11-15T02:48:48.620Z,8.4
2017-11-15T02:49:48.669Z,8.36
2017-11-15T02:50:48.396Z,8.34
2017-11-15T02:52:03.354Z,8.41
2017-11-15T02:52:48.701Z,8.36
2017-11-15T02:53:48.455Z,8.36
2017-11-15T02:56:03.408Z,8.3
2017-11-15T02:56:48.507Z,8.36
2017-11-15T02:57:48.522Z,8.23
2017-11-15T02:58:48.809Z,8.4
2017-11-15T02:59:48.812Z,8.33
2017-11-15T03:00:48.841Z,8.37
2017-11-15T03:02:03.529Z,8.36
2017-11-15T03:02:48.863Z,8.36
2017-11-15T03:03:48.888Z,8.36
2017-11-15T03:04:48.931Z,8.25
2017-11-15T03:05:48.954Z,8.22
2017-11-15T03:06:48.946Z,8.16
2017-11-15T03:08:03.623Z,8.25
2017-11-15T03:08:48.994Z,8.26
2017-11-15T03:09:48.998Z,8.16
2017-11-15T03:10:49.033Z,8.19
2017-11-15T03:11:49.053Z,8.07
2017-11-15T03:13:03.712Z,8.12
2017-11-15T03:13:49.063Z,8.12
2017-11-15T03:14:49.193Z,8.07
2017-11-15T03:16:49.128Z,8.04
2017-11-15T03:17:49.154Z,8.05
2017-11-15T03:18:49.180Z,8.11
2017-11-15T03:19:49.246Z,8.07
2017-11-15T03:20:48.945Z,8.04
2017-11-15T03:21:49.221Z,8.1
2017-11-15T03:22:49.223Z,8.1
2017-11-15T03:24:03.913Z,8.12
2017-11-15T03:24:49.258Z,8.05
2017-11-15T03:25:49.295Z,8.05
2017-11-15T03:26:49.305Z,8.08
2017-11-15T03:27:49.335Z,8.1
2017-11-15T03:28:49.341Z,8.1
2017-11-15T03:29:49.460Z,8.05
2017-11-15T03:30:49.124Z,8.05
2017-11-15T03:31:49.141Z,8.11
2017-11-15T03:32:49.146Z,8.11
2017-11-15T03:33:49.172Z,8.05
2017-11-15T03:34:49.456Z,8.1
2017-11-15T03:35:49.216Z,8.01
2017-11-15T03:36:49.495Z,8.1
2017-11-15T03:37:49.494Z,8.04
2017-11-15T03:38:49.272Z,8.07
2017-11-15T03:40:04.206Z,8.02
2017-11-15T03:40:49.557Z,8.08
2017-11-15T03:41:49.320Z,8.11
2017-11-15T03:43:49.613Z,8
2017-11-15T03:44:49.657Z,8.05
2017-11-15T03:45:49.641Z,8.04
2017-11-15T03:46:49.657Z,8
2017-11-15T03:47:49.418Z,7.93
2017-11-15T03:48:49.707Z,8.01
2017-11-15T03:49:49.721Z,8.07
2017-11-15T03:50:49.729Z,8.07
2017-11-15T03:51:49.760Z,8.08
2017-11-15T03:52:49.785Z,8.07
2017-11-15T03:53:49.804Z,8.1
2017-11-15T03:55:04.225Z,8.05
2017-11-15T03:56:04.487Z,8.01
2017-11-15T03:56:49.843Z,8.05
2017-11-15T03:57:49.896Z,8.1
2017-11-15T03:59:04.641Z,8.07
2017-11-15T03:59:49.641Z,8.07
2017-11-15T04:00:49.913Z,8.02
2017-11-15T04:01:49.928Z,8.05
2017-11-15T04:02:49.701Z,8.07
2017-11-15T04:04:04.644Z,8
2017-11-15T04:05:04.672Z,8.1
2017-11-15T04:05:49.750Z,8.1
2017-11-15T04:07:04.705Z,8.02
2017-11-15T04:07:50.035Z,8.11
2017-11-15T04:08:50.048Z,8.08
2017-11-15T04:09:49.828Z,7.98
2017-11-15T04:10:50.211Z,8.07
2017-11-15T04:11:50.099Z,8.07
2017-11-15T04:12:50.123Z,7.95
2017-11-15T04:13:50.149Z,8.02
2017-11-15T04:14:49.904Z,8
2017-11-15T04:15:49.919Z,8.02
2017-11-15T04:16:50.208Z,7.93
2017-11-15T04:17:50.221Z,8
2017-11-15T04:18:50.241Z,7.97
2017-11-15T04:19:50.253Z,8.05
2017-11-15T04:20:50.262Z,7.95
2017-11-15T04:21:50.302Z,8.04
2017-11-15T04:22:50.305Z,7.98
2017-11-15T04:23:50.055Z,8.02
2017-11-15T04:24:50.351Z,7.92
2017-11-15T04:25:50.352Z,7.83
2017-11-15T04:27:05.053Z,7.87
2017-11-15T04:27:50.389Z,7.87
2017-11-15T04:29:05.077Z,7.95
2017-11-15T04:29:50.424Z,8.02
2017-11-15T04:30:50.463Z,8.01
2017-11-15T04:31:50.473Z,7.97
2017-11-15T04:32:50.539Z,8
2017-11-15T04:33:50.497Z,8
2017-11-15T04:34:50.519Z,7.98
2017-11-15T04:35:50.552Z,7.97
2017-11-15T04:36:50.561Z,8.05
2017-11-15T04:37:50.581Z,7.92
2017-11-15T04:38:50.591Z,7.93
2017-11-15T04:39:50.609Z,7.93
2017-11-15T04:40:50.619Z,8.01
2017-11-15T04:41:50.396Z,7.89
2017-11-15T04:43:05.333Z,8.02
2017-11-15T04:43:50.696Z,7.97
2017-11-15T04:44:50.711Z,7.93
2017-11-15T04:45:50.712Z,7.89
2017-11-15T04:46:50.734Z,7.98
2017-11-15T04:47:50.746Z,8
2017-11-15T04:48:50.773Z,7.86
2017-11-15T04:49:50.805Z,7.87
2017-11-15T04:50:50.563Z,7.89
2017-11-15T04:52:50.860Z,7.92
2017-11-15T04:53:50.591Z,7.9
2017-11-15T04:54:50.894Z,8
2017-11-15T04:55:50.914Z,7.95
2017-11-15T04:56:50.920Z,8
2017-11-15T04:57:50.937Z,7.97
2017-11-15T04:59:05.630Z,8.04
2017-11-15T04:59:50.969Z,7.98
2017-11-15T05:00:50.986Z,8
2017-11-15T05:01:51.007Z,8.08
2017-11-15T05:02:50.770Z,8.01
2017-11-15T05:03:51.040Z,7.87
2017-11-15T05:04:50.812Z,7.98
2017-11-15T05:05:51.073Z,7.95
2017-11-15T05:06:51.098Z,8.02
2017-11-15T05:07:51.115Z,8.04
2017-11-15T05:08:51.133Z,8.02
2017-11-15T05:09:51.150Z,8.01
2017-11-15T05:10:51.226Z,8.1
2017-11-15T05:11:51.177Z,8.01
2017-11-15T05:12:51.202Z,8.05
2017-11-15T05:13:51.229Z,8.05
2017-11-15T05:15:05.643Z,7.92
2017-11-15T05:15:51.254Z,7.98
2017-11-15T05:16:51.288Z,8.01
2017-11-15T05:17:51.026Z,8.05
2017-11-15T05:18:51.325Z,8.02
2017-11-15T05:19:51.365Z,7.97
2017-11-15T05:20:51.331Z,8.02
2017-11-15T05:21:51.376Z,7.93
2017-11-15T05:22:51.389Z,7.9
2017-11-15T05:23:51.141Z,7.89
2017-11-15T05:24:51.413Z,7.95
2017-11-15T05:25:51.167Z,7.95
2017-11-15T05:26:51.203Z,8
2017-11-15T05:27:51.480Z,8.1
2017-11-15T05:28:51.487Z,8.01
2017-11-15T05:30:06.173Z,7.97
2017-11-15T05:30:51.536Z,8.02
2017-11-15T05:31:51.534Z,8
2017-11-15T05:32:51.569Z,7.98
2017-11-15T05:33:51.570Z,8.05
2017-11-15T05:34:51.592Z,8.04
2017-11-15T05:36:06.291Z,8.08
2017-11-15T05:36:51.642Z,8.1
2017-11-15T05:39:06.342Z,8.07
2017-11-15T05:39:51.675Z,8.12
2017-11-15T05:40:51.710Z,8.08
2017-11-15T05:41:51.752Z,8
2017-11-15T05:42:51.745Z,8.1
2017-11-15T05:43:51.752Z,8.1
2017-11-15T05:44:51.778Z,8.11
2017-11-15T05:46:06.477Z,8.18
2017-11-15T05:46:51.823Z,8.11
2017-11-15T05:47:51.820Z,8.07
2017-11-15T05:48:51.835Z,8.07
2017-11-15T05:49:51.872Z,8.15
2017-11-15T05:50:51.879Z,8.19
2017-11-15T05:51:51.903Z,8.1
2017-11-15T05:52:52.032Z,8.12
2017-11-15T05:53:51.935Z,8.04
2017-11-15T05:54:51.972Z,8.1
2017-11-15T05:55:51.960Z,8.04
2017-11-15T05:56:51.998Z,8.12
2017-11-15T05:57:52.008Z,8.05
2017-11-15T05:59:52.040Z,8.08
2017-11-15T06:00:52.065Z,8.05
2017-11-15T06:02:06.751Z,8.08
2017-11-15T06:02:51.852Z,8.12
2017-11-15T06:04:52.132Z,8.05
2017-11-15T06:05:52.158Z,8.12
2017-11-15T06:06:52.159Z,8.16
2017-11-15T06:07:52.201Z,8.1
2017-11-15T06:08:52.214Z,8.08
2017-11-15T06:09:52.350Z,8.11
2017-11-15T06:10:52.355Z,8.15
2017-11-15T06:11:52.360Z,8.05
2017-11-15T06:12:52.151Z,8.07
2017-11-15T06:13:52.354Z,8.11
2017-11-15T06:14:52.592Z,8.16
2017-11-15T06:15:52.289Z,8.04
2017-11-15T06:16:52.498Z,8.08
2017-11-15T06:18:07.075Z,8.04
2017-11-15T06:19:07.284Z,8.05
2017-11-15T06:19:52.601Z,8.11
2017-11-15T06:20:52.427Z,8.08
2017-11-15T06:22:52.515Z,8.15
2017-11-15T06:23:52.402Z,8.11
2017-11-15T06:24:52.776Z,8.11
2017-11-15T06:26:52.789Z,8.05
2017-11-15T06:28:52.880Z,8.29
2017-11-15T06:29:52.708Z,8.19
2017-11-15T06:30:52.849Z,8.19
2017-11-15T06:31:52.744Z,8.16
2017-11-15T06:33:07.439Z,8.22
2017-11-15T06:34:07.416Z,8.19
2017-11-15T06:34:52.765Z,8.2
2017-11-15T06:35:52.570Z,8.26
2017-11-15T06:36:52.984Z,8.23
2017-11-15T06:37:52.726Z,8.29
2017-11-15T06:38:52.765Z,8.3
2017-11-15T06:39:52.751Z,8.28
2017-11-15T06:40:52.790Z,8.28
2017-11-15T06:41:52.804Z,8.16
2017-11-15T06:42:52.808Z,8.28
2017-11-15T06:43:52.847Z,8.18
2017-11-15T06:44:52.604Z,8.25
2017-11-15T06:45:52.864Z,8.23
2017-11-15T06:46:52.897Z,8.23
2017-11-15T06:47:52.897Z,8.33
2017-11-15T06:48:52.913Z,8.34
2017-11-15T06:50:07.610Z,8.29
2017-11-15T06:50:52.971Z,8.29
2017-11-15T06:51:52.994Z,8.22
2017-11-15T06:52:52.474Z,8.18
2017-11-15T06:53:53.002Z,8.22
2017-11-15T06:55:53.059Z,8.15
2017-11-15T06:56:53.070Z,8.1
2017-11-15T06:57:53.107Z,8.18
2017-11-15T06:58:53.095Z,8.18
2017-11-15T06:59:53.133Z,8.23
2017-11-15T07:00:53.126Z,8.2
2017-11-15T07:01:53.177Z,8.25
2017-11-15T07:02:53.216Z,8.28
2017-11-15T07:05:07.887Z,8.36
2017-11-15T07:05:53.238Z,8.36
2017-11-15T07:06:53.256Z,8.33
2017-11-15T07:08:07.927Z,8.36
2017-11-15T07:09:07.953Z,8.28
2017-11-15T07:09:53.301Z,8.41
2017-11-15T07:11:53.338Z,8.3
2017-11-15T07:12:53.121Z,8.3
2017-11-15T07:13:53.386Z,8.37
2017-11-15T07:14:53.394Z,8.38
2017-11-15T07:15:53.399Z,8.4
2017-11-15T07:16:53.526Z,8.38
2017-11-15T07:17:53.456Z,8.4
2017-11-15T07:18:53.476Z,8.34
2017-11-15T07:19:53.233Z,8.36
2017-11-15T07:20:53.505Z,8.44
2017-11-15T07:21:53.518Z,8.4
2017-11-15T07:22:53.534Z,8.4
2017-11-15T07:23:53.562Z,8.37
2017-11-15T07:24:53.576Z,8.33
2017-11-15T07:26:53.622Z,8.5
2017-11-15T07:27:53.617Z,8.43
2017-11-15T07:29:08.361Z,8.58
2017-11-15T07:30:08.332Z,8.43
2017-11-15T07:30:53.702Z,8.45
2017-11-15T07:31:53.446Z,8.48
2017-11-15T07:32:53.736Z,8.58
2017-11-15T07:33:53.739Z,8.5
2017-11-15T07:34:53.500Z,8.48
2017-11-15T07:35:53.773Z,8.56
2017-11-15T07:37:08.462Z,8.48
2017-11-15T07:37:53.549Z,8.56
2017-11-15T07:39:53.857Z,8.41
2017-11-15T07:40:53.602Z,8.52
2017-11-15T07:41:53.945Z,8.45
2017-11-15T07:42:53.899Z,8.52
2017-11-15T07:43:53.677Z,8.56
2017-11-15T07:44:53.955Z,8.5
2017-11-15T07:46:53.974Z,8.56
2017-11-15T07:47:54.006Z,8.53
2017-11-15T07:48:53.774Z,8.61
2017-11-15T07:49:54.028Z,8.55
2017-11-15T07:50:54.056Z,8.55
2017-11-15T07:51:54.085Z,8.52
2017-11-15T07:53:08.753Z,8.61
2017-11-15T07:53:54.089Z,8.66
2017-11-15T07:54:54.121Z,8.68
2017-11-15T07:55:54.140Z,8.63
2017-11-15T07:56:54.140Z,8.55
2017-11-15T07:57:53.917Z,8.66
2017-11-15T07:59:08.865Z,8.66
2017-11-15T07:59:53.941Z,8.66
2017-11-15T08:00:53.965Z,8.73
2017-11-15T08:01:54.003Z,8.73
2017-11-15T08:02:54.288Z,8.71
2017-11-15T08:04:08.950Z,8.74
2017-11-15T08:04:54.302Z,8.63
2017-11-15T08:05:54.322Z,8.74
2017-11-15T08:06:54.137Z,8.7
2017-11-15T08:07:54.358Z,8.73
2017-11-15T08:09:09.039Z,8.79
2017-11-15T08:09:54.401Z,8.83
2017-11-15T08:11:09.078Z,8.89
2017-11-15T08:11:54.461Z,8.94
2017-11-15T08:12:54.441Z,8.95
2017-11-15T08:13:54.215Z,9.01
2017-11-15T08:14:54.488Z,9.02
2017-11-15T08:15:54.506Z,8.95
2017-11-15T08:16:54.265Z,8.96
2017-11-15T08:17:54.536Z,8.91
2017-11-15T08:18:54.558Z,8.98
2017-11-15T08:19:54.575Z,8.98
2017-11-15T08:20:54.580Z,8.83
2017-11-15T08:21:54.351Z,8.96
2017-11-15T08:22:54.638Z,8.84
2017-11-15T08:23:54.681Z,8.87
2017-11-15T08:25:09.367Z,8.96
2017-11-15T08:26:09.351Z,8.96
2017-11-15T08:27:09.363Z,9.1
2017-11-15T08:28:54.754Z,8.98
2017-11-15T08:29:54.763Z,9.02
2017-11-15T08:30:54.776Z,9.01
2017-11-15T08:31:54.888Z,8.94
2017-11-15T08:32:54.813Z,8.96
2017-11-15T08:33:54.845Z,9.08
2017-11-15T08:34:54.861Z,9.05
2017-11-15T08:35:54.885Z,9.13
2017-11-15T08:37:54.922Z,9.02
2017-11-15T08:38:54.915Z,9.08
2017-11-15T08:40:09.617Z,8.98
2017-11-15T08:40:54.951Z,8.99
2017-11-15T08:41:54.983Z,8.89
2017-11-15T08:42:54.989Z,8.92
2017-11-15T08:43:55.028Z,9.01
2017-11-15T08:44:54.799Z,8.94
2017-11-15T08:45:55.055Z,8.91
2017-11-15T08:46:55.085Z,9.01
2017-11-15T08:47:55.095Z,8.99
2017-11-15T08:48:55.108Z,8.94
2017-11-15T08:49:55.119Z,9.04
2017-11-15T08:50:55.171Z,8.95
2017-11-15T08:51:55.173Z,8.95
2017-11-15T08:52:55.182Z,8.99
2017-11-15T08:54:55.225Z,8.94
2017-11-15T08:55:55.245Z,8.95
2017-11-15T08:56:55.278Z,8.94
2017-11-15T08:57:55.292Z,8.98
2017-11-15T08:58:55.285Z,9.01
2017-11-15T08:59:55.337Z,8.92
2017-11-15T09:00:55.068Z,8.94
2017-11-15T09:01:55.345Z,8.99
2017-11-15T09:02:55.374Z,9.05
2017-11-15T09:03:55.387Z,8.94
2017-11-15T09:04:55.428Z,8.94
2017-11-15T09:05:55.424Z,8.94
2017-11-15T09:06:55.192Z,9.1
2017-11-15T09:07:55.216Z,9.08
2017-11-15T09:08:55.527Z,9.05
2017-11-15T09:09:55.510Z,9.02
2017-11-15T09:10:55.523Z,9.08
2017-11-15T09:12:10.208Z,9.17
2017-11-15T09:12:55.290Z,9.15
2017-11-15T09:14:55.588Z,9.18
2017-11-15T09:15:55.626Z,9.28
2017-11-15T09:16:55.640Z,9.26
2017-11-15T09:17:55.660Z,9.33
2017-11-15T09:18:55.675Z,9.36
2017-11-15T09:20:10.358Z,9.36
2017-11-15T09:20:55.708Z,9.32
2017-11-15T09:21:55.722Z,9.38
2017-11-15T09:22:55.754Z,9.32
2017-11-15T09:23:55.749Z,9.31
2017-11-15T09:24:55.619Z,9.28
2017-11-15T09:25:55.795Z,9.33
2017-11-15T09:26:55.404Z,9.39
2017-11-15T09:28:10.500Z,9.39
2017-11-15T09:28:55.858Z,9.36
2017-11-15T09:29:55.877Z,9.47
2017-11-15T09:31:10.587Z,9.43
2017-11-15T09:31:55.646Z,9.46
2017-11-15T09:32:55.952Z,9.51
2017-11-15T09:33:55.945Z,9.48
2017-11-15T09:34:55.975Z,9.61
2017-11-15T09:36:10.659Z,9.54
2017-11-15T09:36:56.017Z,9.64
2017-11-15T09:37:56.022Z,9.61
2017-11-15T09:38:56.037Z,9.57
2017-11-15T09:39:56.092Z,9.61
2017-11-15T09:40:56.081Z,9.57
2017-11-15T09:41:56.098Z,9.61
2017-11-15T09:42:55.851Z,9.61
2017-11-15T09:44:10.820Z,9.61
2017-11-15T09:44:56.170Z,9.61
2017-11-15T09:45:56.165Z,9.6
2017-11-15T09:46:56.207Z,9.66
2017-11-15T09:47:56.230Z,9.71
2017-11-15T09:49:10.635Z,9.72
2017-11-15T09:49:56.236Z,9.75
2017-11-15T09:51:56.029Z,9.56
2017-11-15T09:52:56.305Z,9.66
2017-11-15T09:54:11.001Z,9.65
2017-11-15T09:54:55.829Z,9.72
2017-11-15T09:56:56.487Z,9.71
2017-11-15T09:57:56.132Z,9.66
2017-11-15T09:58:56.434Z,9.65
2017-11-15T10:00:11.112Z,9.75
2017-11-15T10:00:56.189Z,9.78
2017-11-15T10:01:56.464Z,9.74
2017-11-15T10:02:56.251Z,9.94
2017-11-15T10:03:56.514Z,9.89
2017-11-15T10:04:56.526Z,9.91
2017-11-15T10:05:56.556Z,10.01
2017-11-15T10:06:56.569Z,9.94
2017-11-15T10:07:56.595Z,9.89
2017-11-15T10:09:56.623Z,9.84
2017-11-15T10:10:56.660Z,9.97
2017-11-15T10:11:56.660Z,9.93
2017-11-15T10:12:56.697Z,9.93
2017-11-15T10:13:56.460Z,9.97
2017-11-15T10:15:11.385Z,9.96
2017-11-15T10:15:56.746Z,9.9
2017-11-15T10:16:56.758Z,9.96
2017-11-15T10:17:56.801Z,9.97
2017-11-15T10:18:56.796Z,9.99
2017-11-15T10:19:56.837Z,9.96
2017-11-15T10:20:56.591Z,10.05
2017-11-15T10:21:56.873Z,10.09
2017-11-15T10:22:56.885Z,10.2
2017-11-15T10:23:56.893Z,10.23
2017-11-15T10:24:56.936Z,10.17
2017-11-15T10:25:56.941Z,10.27
2017-11-15T10:26:56.959Z,10.2
2017-11-15T10:27:56.979Z,10.26
2017-11-15T10:28:57.001Z,10.27
2017-11-15T10:29:57.003Z,10.23
2017-11-15T10:30:57.047Z,10.17
2017-11-15T10:31:57.046Z,10.2
2017-11-15T10:32:57.076Z,10.15
2017-11-15T10:33:57.104Z,10.05
2017-11-15T10:34:56.867Z,9.99
2017-11-15T10:35:57.142Z,10.12
2017-11-15T10:37:11.822Z,10.07
2017-11-15T10:37:57.171Z,10.05
2017-11-15T10:38:57.195Z,10.11
2017-11-15T10:39:57.206Z,10.02
2017-11-15T10:41:11.895Z,10.07
2017-11-15T10:41:57.255Z,10.02
2017-11-15T10:42:57.278Z,10.08
2017-11-15T10:44:57.315Z,10.04
2017-11-15T10:45:57.329Z,9.99
2017-11-15T10:47:11.999Z,9.99
2017-11-15T10:47:57.371Z,9.96
2017-11-15T10:48:57.126Z,9.89
2017-11-15T10:49:57.395Z,9.86
2017-11-15T10:50:57.185Z,9.93
2017-11-15T10:52:12.095Z,9.83
2017-11-15T10:52:57.459Z,9.97
2017-11-15T10:53:57.490Z,9.86
2017-11-15T10:54:57.503Z,9.87
2017-11-15T10:55:57.547Z,9.97
2017-11-15T10:56:57.545Z,9.93
2017-11-15T10:57:57.552Z,9.9
2017-11-15T10:58:57.570Z,9.94
2017-11-15T10:59:57.579Z,9.94
2017-11-15T11:00:57.604Z,9.91
2017-11-15T11:01:57.637Z,9.9
2017-11-15T11:03:12.310Z,9.84
2017-11-15T11:03:57.683Z,9.84
2017-11-15T11:04:57.688Z,9.96
2017-11-15T11:05:57.702Z,9.91
2017-11-15T11:06:57.750Z,9.96
2017-11-15T11:08:12.404Z,9.96
2017-11-15T11:08:57.760Z,9.99
2017-11-15T11:09:57.783Z,9.99
2017-11-15T11:10:57.548Z,10.04
2017-11-15T11:11:57.302Z,9.94
2017-11-15T11:12:57.826Z,9.99
2017-11-15T11:13:57.848Z,10.01
2017-11-15T11:14:57.882Z,9.97
2017-11-15T11:15:57.917Z,10.05
2017-11-15T11:16:57.901Z,10.02
2017-11-15T11:17:57.952Z,10.05
2017-11-15T11:19:12.652Z,10.02
2017-11-15T11:19:57.973Z,10.05
2017-11-15T11:20:57.723Z,10.09
2017-11-15T11:21:57.755Z,10.01
2017-11-15T11:22:58.074Z,10.04
2017-11-15T11:23:58.053Z,10.09
2017-11-15T11:24:57.557Z,10.02
2017-11-15T11:25:58.107Z,10.17
2017-11-15T11:26:57.846Z,10.08
2017-11-15T11:29:12.817Z,10.08
2017-11-15T11:29:58.171Z,10.04
2017-11-15T11:30:58.193Z,10.2
2017-11-15T11:31:57.941Z,10.18
2017-11-15T11:32:57.971Z,10.14
2017-11-15T11:33:58.008Z,10.2
2017-11-15T11:35:12.923Z,10.2
2017-11-15T11:35:58.276Z,10.18
2017-11-15T11:36:58.050Z,10.15
2017-11-15T11:37:58.063Z,10.2
2017-11-15T11:38:58.329Z,10.3
2017-11-15T11:39:58.372Z,10.25
2017-11-15T11:40:58.384Z,10.23
2017-11-15T11:41:58.138Z,10.23
2017-11-15T11:42:58.165Z,10.25
2017-11-15T11:43:58.438Z,10.22
2017-11-15T11:44:58.454Z,10.27
2017-11-15T11:45:58.211Z,10.26
2017-11-15T11:46:58.490Z,10.27
2017-11-15T11:47:58.512Z,10.25
2017-11-15T11:48:58.555Z,10.3
2017-11-15T11:50:13.225Z,10.23
2017-11-15T11:50:58.578Z,10.22
2017-11-15T11:51:58.602Z,10.27
2017-11-15T11:52:58.610Z,10.27
2017-11-15T11:53:58.629Z,10.2
2017-11-15T11:54:58.391Z,10.26
2017-11-15T11:55:58.665Z,10.25
2017-11-15T11:56:58.682Z,10.27
2017-11-15T11:57:58.741Z,10.15
2017-11-15T11:58:58.748Z,10.15
2017-11-15T12:00:13.416Z,10.2
2017-11-15T12:00:58.773Z,10.23
2017-11-15T12:01:58.771Z,10.15
2017-11-15T12:02:58.817Z,10.18
2017-11-15T12:03:58.830Z,10.12
2017-11-15T12:04:58.858Z,10.18
2017-11-15T12:05:58.863Z,10.22
2017-11-15T12:06:58.888Z,10.25
2017-11-15T12:07:58.910Z,10.18
2017-11-15T12:08:58.658Z,10.23
2017-11-15T12:09:58.926Z,10.23
2017-11-15T12:10:58.960Z,10.25
2017-11-15T12:11:58.978Z,10.27
2017-11-15T12:12:59.005Z,10.33
2017-11-15T12:13:59.024Z,10.27
2017-11-15T12:14:59.037Z,10.26
2017-11-15T12:15:59.056Z,10.33
2017-11-15T12:16:59.073Z,10.34
2017-11-15T12:18:13.757Z,10.36
2017-11-15T12:18:59.125Z,10.29
2017-11-15T12:19:59.122Z,10.36
2017-11-15T12:20:59.149Z,10.48
2017-11-15T12:22:13.573Z,10.44
2017-11-15T12:22:59.200Z,10.53
2017-11-15T12:23:59.224Z,10.53
2017-11-15T12:25:13.890Z,10.45
2017-11-15T12:25:59.248Z,10.53
2017-11-15T12:26:59.259Z,10.63
2017-11-15T12:27:58.783Z,10.48
2017-11-15T12:28:59.300Z,10.66
2017-11-15T12:29:59.061Z,10.64
2017-11-15T12:30:59.083Z,10.71
2017-11-15T12:31:59.365Z,10.67
2017-11-15T12:32:59.388Z,10.68
2017-11-15T12:33:59.408Z,10.67
2017-11-15T12:34:59.169Z,10.76
2017-11-15T12:35:59.442Z,10.6
2017-11-15T12:36:59.473Z,10.66
2017-11-15T12:38:14.161Z,10.64
2017-11-15T12:38:59.502Z,10.66
2017-11-15T12:39:59.516Z,10.61
2017-11-15T12:41:14.200Z,10.71
2017-11-15T12:41:59.550Z,10.68
2017-11-15T12:42:59.579Z,10.67
2017-11-15T12:43:59.342Z,10.73
2017-11-15T12:44:59.611Z,10.81
2017-11-15T12:45:59.636Z,10.73
2017-11-15T12:46:59.404Z,10.74
2017-11-15T12:47:59.414Z,10.71
2017-11-15T12:48:59.710Z,10.82
2017-11-15T12:49:59.712Z,10.71
2017-11-15T12:50:59.746Z,10.74
2017-11-15T12:51:59.755Z,10.67
2017-11-15T12:52:59.503Z,10.73
2017-11-15T12:54:14.452Z,10.76
2017-11-15T12:54:59.543Z,10.74
2017-11-15T12:55:59.845Z,10.78
2017-11-15T12:56:59.856Z,10.68
2017-11-15T12:57:59.873Z,10.67
2017-11-15T12:58:59.892Z,10.73
2017-11-15T12:59:59.913Z,10.68
2017-11-15T13:02:14.618Z,10.67
2017-11-15T13:02:59.972Z,10.73
2017-11-15T13:03:59.987Z,10.71
2017-11-15T13:05:00.017Z,10.67
2017-11-15T13:06:00.027Z,10.63
2017-11-15T13:07:00.064Z,10.64
2017-11-15T13:08:00.072Z,10.6
2017-11-15T13:09:00.093Z,10.61
2017-11-15T13:10:14.767Z,10.66
2017-11-15T13:11:00.139Z,10.63
2017-11-15T13:12:00.156Z,10.66
2017-11-15T13:13:00.195Z,10.64
2017-11-15T13:14:14.858Z,10.63
2017-11-15T13:15:00.219Z,10.64
2017-11-15T13:15:59.963Z,10.66
2017-11-15T13:17:00.256Z,10.61
2017-11-15T13:19:00.020Z,10.6
2017-11-15T13:20:00.286Z,10.48
2017-11-15T13:21:00.338Z,10.45
2017-11-15T13:22:00.337Z,10.63
2017-11-15T13:23:00.369Z,10.63
2017-11-15T13:24:14.791Z,10.6
2017-11-15T13:25:15.068Z,10.64
2017-11-15T13:26:00.440Z,10.63
2017-11-15T13:27:00.170Z,10.71
2017-11-15T13:28:00.486Z,10.64
2017-11-15T13:29:00.498Z,10.66
2017-11-15T13:30:00.555Z,10.61
2017-11-15T13:31:00.525Z,10.6
2017-11-15T13:32:15.207Z,10.64
2017-11-15T13:33:00.547Z,10.6
2017-11-15T13:34:00.565Z,10.6
2017-11-15T13:35:00.596Z,10.56
2017-11-15T13:36:00.624Z,10.56
2017-11-15T13:37:00.487Z,10.56
2017-11-15T13:38:00.661Z,10.48
2017-11-15T13:39:00.693Z,10.61
2017-11-15T13:40:00.686Z,10.51
2017-11-15T13:41:00.708Z,10.51
2017-11-15T13:42:00.728Z,10.47
2017-11-15T13:43:00.749Z,10.48
2017-11-15T13:44:00.771Z,10.48
2017-11-15T13:45:15.451Z,10.59
2017-11-15T13:46:00.811Z,10.61
2017-11-15T13:47:00.839Z,10.53
2017-11-15T13:48:00.869Z,10.63
2017-11-15T13:49:00.856Z,10.56
2017-11-15T13:50:15.555Z,10.61
2017-11-15T13:51:00.919Z,10.48
2017-11-15T13:52:00.667Z,10.61
2017-11-15T13:53:15.617Z,10.48
2017-11-15T13:54:00.991Z,10.44